createdAt,value
2022-08-18T00:00:23.133Z,17.89
2022-08-18T00:01:23.121Z,17.92
2022-08-18T00:02:28.788Z,17.86
2022-08-18T00:03:53.108Z,17.85
2022-08-18T00:04:35.789Z,17.74
2022-08-18T00:05:24.087Z,17.79
2022-08-18T00:06:23.086Z,17.85
2022-08-18T00:07:23.065Z,17.80
2022-08-18T00:08:23.069Z,17.71
2022-08-18T00:09:23.072Z,17.78
2022-08-18T00:10:23.055Z,17.85
2022-08-18T00:11:23.024Z,17.82
2022-08-18T00:12:23.026Z,17.78
2022-08-18T00:13:23.017Z,17.82
2022-08-18T00:14:23.096Z,17.85
2022-08-18T00:15:23.012Z,17.80
2022-08-18T00:16:23.003Z,17.79
2022-08-18T00:17:23.018Z,17.86
2022-08-18T00:18:22.989Z,17.89
2022-08-18T00:19:43.623Z,17.92
2022-08-18T00:20:23.983Z,17.94
2022-08-18T00:21:22.951Z,17.90
2022-08-18T00:22:22.942Z,18.01
2022-08-18T00:23:22.932Z,18.00
2022-08-18T00:24:22.940Z,17.85
2022-08-18T00:25:22.936Z,17.89
2022-08-18T00:26:22.946Z,17.89
2022-08-18T00:27:26.182Z,17.82
2022-08-18T00:28:24.133Z,17.78
2022-08-18T00:29:22.896Z,17.83
2022-08-18T00:30:22.868Z,17.82
2022-08-18T00:32:22.399Z,17.87
2022-08-18T00:33:22.387Z,17.86
2022-08-18T00:34:22.378Z,17.83
2022-08-18T00:35:22.377Z,17.86
2022-08-18T00:36:22.357Z,17.83
2022-08-18T00:37:22.359Z,17.89
2022-08-18T00:38:23.584Z,17.86
2022-08-18T00:39:22.339Z,17.87
2022-08-18T00:40:22.383Z,17.80
2022-08-18T00:41:22.329Z,17.89
2022-08-18T00:42:28.920Z,17.83
2022-08-18T00:43:24.417Z,17.85
2022-08-18T00:44:23.397Z,17.92
2022-08-18T00:45:23.391Z,17.83
2022-08-18T00:46:23.377Z,17.80
2022-08-18T00:47:32.963Z,17.76
2022-08-18T00:48:24.382Z,17.78
2022-08-18T00:49:23.350Z,17.71
2022-08-18T00:50:23.357Z,17.68
2022-08-18T00:51:23.339Z,17.72
2022-08-18T00:52:23.368Z,17.70
2022-08-18T00:53:23.323Z,17.63
2022-08-18T00:54:23.329Z,17.54
2022-08-18T00:55:23.305Z,17.59
2022-08-18T00:56:23.304Z,17.76
2022-08-18T00:57:23.300Z,17.57
2022-08-18T00:58:23.281Z,17.67
2022-08-18T00:59:23.282Z,17.60
2022-08-18T01:00:23.269Z,17.60
2022-08-18T01:01:23.354Z,17.65
2022-08-18T01:02:23.242Z,17.49
2022-08-18T01:03:24.605Z,17.48
2022-08-18T01:04:23.245Z,17.46
2022-08-18T01:05:23.235Z,17.51
2022-08-18T01:06:23.216Z,17.48
2022-08-18T01:07:23.216Z,17.44
2022-08-18T01:08:28.860Z,17.42
2022-08-18T01:09:24.228Z,17.34
2022-08-18T01:10:23.306Z,17.33
2022-08-18T01:11:23.185Z,17.36
2022-08-18T01:12:45.775Z,17.41
2022-08-18T01:13:24.175Z,17.34
2022-08-18T01:14:23.177Z,17.46
2022-08-18T01:15:28.838Z,17.42
2022-08-18T01:16:24.151Z,17.59
2022-08-18T01:17:23.133Z,17.44
2022-08-18T01:18:23.119Z,17.45
2022-08-18T01:19:23.123Z,17.49
2022-08-18T01:20:23.100Z,17.48
2022-08-18T01:21:23.143Z,17.45
2022-08-18T01:22:23.091Z,17.56
2022-08-18T01:23:23.077Z,17.49
2022-08-18T01:24:23.082Z,17.59
2022-08-18T01:25:23.583Z,17.63
2022-08-18T01:26:23.086Z,17.65
2022-08-18T01:27:23.077Z,17.68
2022-08-18T01:28:23.054Z,17.72
2022-08-18T01:29:23.069Z,17.65
2022-08-18T01:30:23.019Z,17.70
2022-08-18T01:31:23.760Z,17.57
2022-08-18T01:32:23.009Z,17.52
2022-08-18T01:33:22.995Z,17.67
2022-08-18T01:34:23.988Z,17.60
2022-08-18T01:35:23.000Z,17.57
2022-08-18T01:36:23.065Z,17.51
2022-08-18T01:37:22.970Z,17.51
2022-08-18T01:38:22.952Z,17.54
2022-08-18T01:41:23.888Z,17.51
2022-08-18T01:41:24.228Z,17.48
2022-08-18T01:41:30.318Z,17.44
2022-08-18T01:42:24.938Z,17.54
2022-08-18T01:43:22.906Z,17.44
2022-08-18T01:45:29.179Z,17.44
2022-08-18T01:46:29.178Z,17.41
2022-08-18T01:47:29.173Z,17.52
2022-08-18T01:48:31.250Z,17.48
2022-08-18T01:49:30.292Z,17.46
2022-08-18T01:50:30.236Z,17.42
2022-08-18T01:51:39.453Z,17.36
2022-08-18T01:52:31.225Z,17.36
2022-08-18T01:53:30.209Z,17.36
2022-08-18T01:54:30.370Z,17.36
2022-08-18T01:55:30.193Z,17.34
2022-08-18T01:56:30.191Z,17.34
2022-08-18T01:57:30.182Z,17.26
2022-08-18T01:58:31.809Z,17.20
2022-08-18T01:59:31.161Z,17.26
2022-08-18T02:00:30.150Z,17.22
2022-08-18T02:01:36.642Z,17.29
2022-08-18T02:02:31.187Z,17.30
2022-08-18T02:03:30.135Z,17.31
2022-08-18T02:04:37.614Z,17.36
2022-08-18T02:05:32.116Z,17.36
2022-08-18T02:06:32.488Z,17.31
2022-08-18T02:07:35.951Z,17.34
2022-08-18T02:08:31.097Z,17.39
2022-08-18T02:09:30.083Z,17.42
2022-08-18T02:10:30.076Z,17.33
2022-08-18T02:11:30.065Z,17.42
2022-08-18T02:12:30.059Z,17.49
2022-08-18T02:13:30.059Z,17.36
2022-08-18T02:14:31.304Z,17.39
2022-08-18T02:15:30.044Z,17.36
2022-08-18T02:16:30.027Z,17.39
2022-08-18T02:17:30.020Z,17.38
2022-08-18T02:18:47.226Z,17.38
2022-08-18T02:19:32.001Z,17.29
2022-08-18T02:20:30.014Z,17.46
2022-08-18T02:21:29.990Z,17.39
2022-08-18T02:22:29.979Z,17.38
2022-08-18T02:23:29.976Z,17.46
2022-08-18T02:24:29.966Z,17.41
2022-08-18T02:25:29.995Z,17.31
2022-08-18T02:26:29.948Z,17.36
2022-08-18T02:27:29.938Z,17.38
2022-08-18T02:28:30.742Z,17.41
2022-08-18T02:29:30.929Z,17.36
2022-08-18T02:30:29.917Z,17.30
2022-08-18T02:31:29.923Z,17.30
2022-08-18T02:32:29.896Z,17.39
2022-08-18T02:33:29.889Z,17.45
2022-08-18T02:34:29.882Z,17.49
2022-08-18T02:35:29.872Z,17.51
2022-08-18T02:36:29.870Z,17.52
2022-08-18T02:37:29.852Z,17.51
2022-08-18T02:38:29.851Z,17.36
2022-08-18T02:39:29.929Z,17.34
2022-08-18T02:40:29.839Z,17.33
2022-08-18T02:41:30.187Z,17.36
2022-08-18T02:42:29.818Z,17.38
2022-08-18T02:43:31.161Z,17.44
2022-08-18T02:44:30.629Z,17.41
2022-08-18T02:45:30.796Z,17.34
2022-08-18T02:46:31.305Z,17.45
2022-08-18T02:47:33.521Z,17.38
2022-08-18T02:48:30.770Z,17.33
2022-08-18T02:49:29.767Z,17.34
2022-08-18T02:50:29.754Z,17.23
2022-08-18T02:51:29.743Z,17.29
2022-08-18T02:52:29.752Z,17.39
2022-08-18T02:53:29.720Z,17.39
2022-08-18T02:54:29.717Z,17.45
2022-08-18T02:55:29.711Z,17.41
2022-08-18T02:56:32.863Z,17.54
2022-08-18T02:57:30.688Z,17.49
2022-08-18T02:58:33.571Z,17.51
2022-08-18T02:59:31.944Z,17.51
2022-08-18T03:00:29.680Z,17.45
2022-08-18T03:01:29.775Z,17.38
2022-08-18T03:02:29.650Z,17.33
2022-08-18T03:03:29.642Z,17.27
2022-08-18T03:04:30.548Z,17.31
2022-08-18T03:05:29.637Z,17.30
2022-08-18T03:06:29.619Z,17.36
2022-08-18T03:07:29.616Z,17.44
2022-08-18T03:08:29.600Z,17.44
2022-08-18T03:09:29.593Z,17.39
2022-08-18T03:10:33.006Z,17.45
2022-08-18T03:11:29.588Z,17.31
2022-08-18T03:12:29.580Z,17.34
2022-08-18T03:13:29.561Z,17.22
2022-08-18T03:14:29.560Z,17.34
2022-08-18T03:15:29.552Z,17.34
2022-08-18T03:16:29.546Z,17.27
2022-08-18T03:17:29.532Z,17.23
2022-08-18T03:18:29.523Z,17.23
2022-08-18T03:19:29.635Z,17.29
2022-08-18T03:20:30.282Z,17.24
2022-08-18T03:21:29.500Z,17.34
2022-08-18T03:22:29.763Z,17.23
2022-08-18T03:23:30.095Z,17.38
2022-08-18T03:24:29.488Z,17.27
2022-08-18T03:25:29.466Z,17.24
2022-08-18T03:26:29.460Z,17.31
2022-08-18T03:27:30.078Z,17.34
2022-08-18T03:28:29.444Z,17.38
2022-08-18T03:29:32.317Z,17.41
2022-08-18T03:30:30.431Z,17.48
2022-08-18T03:31:29.418Z,17.39
2022-08-18T03:32:29.413Z,17.57
2022-08-18T03:33:29.435Z,17.52
2022-08-18T03:34:29.408Z,17.52
2022-08-18T03:35:29.395Z,17.54
2022-08-18T03:36:29.384Z,17.38
2022-08-18T03:37:29.374Z,17.36
2022-08-18T03:38:29.364Z,17.39
2022-08-18T03:39:29.470Z,17.31
2022-08-18T03:40:29.381Z,17.38
2022-08-18T03:41:57.117Z,17.46
2022-08-18T03:42:30.336Z,17.51
2022-08-18T03:43:50.756Z,17.41
2022-08-18T03:44:31.107Z,17.52
2022-08-18T03:45:29.673Z,17.56
2022-08-18T03:46:29.298Z,17.56
2022-08-18T03:47:29.287Z,17.51
2022-08-18T03:48:29.283Z,17.54
2022-08-18T03:49:29.280Z,17.59
2022-08-18T03:50:29.267Z,17.59
2022-08-18T03:51:29.257Z,17.67
2022-08-18T03:52:29.250Z,17.78
2022-08-18T03:53:29.241Z,17.57
2022-08-18T03:54:29.280Z,17.54
2022-08-18T03:55:29.233Z,17.60
2022-08-18T03:56:29.206Z,17.65
2022-08-18T03:57:30.214Z,17.52
2022-08-18T03:58:29.204Z,17.33
2022-08-18T03:59:29.199Z,17.41
2022-08-18T04:00:29.194Z,17.39
2022-08-18T04:01:29.224Z,17.36
2022-08-18T04:02:29.175Z,17.31
2022-08-18T04:03:29.173Z,17.24
2022-08-18T04:04:29.159Z,17.33
2022-08-18T04:05:29.156Z,17.36
2022-08-18T04:06:29.883Z,17.34
2022-08-18T04:07:29.142Z,17.34
2022-08-18T04:08:29.127Z,17.41
2022-08-18T04:09:29.124Z,17.31
2022-08-18T04:10:29.117Z,17.44
2022-08-18T04:11:29.104Z,17.41
2022-08-18T04:12:30.092Z,17.44
2022-08-18T04:13:29.086Z,17.51
2022-08-18T04:14:29.092Z,17.52
2022-08-18T04:15:29.075Z,17.63
2022-08-18T04:16:29.061Z,17.48
2022-08-18T04:17:29.063Z,17.54
2022-08-18T04:18:29.042Z,17.48
2022-08-18T04:19:29.076Z,17.48
2022-08-18T04:20:29.030Z,17.45
2022-08-18T04:21:29.038Z,17.34
2022-08-18T04:22:29.017Z,17.31
2022-08-18T04:23:29.012Z,17.46
2022-08-18T04:24:31.170Z,17.39
2022-08-18T04:25:32.728Z,17.31
2022-08-18T04:26:29.982Z,17.46
2022-08-18T04:27:28.983Z,17.34
2022-08-18T04:28:28.976Z,17.33
2022-08-18T04:29:28.976Z,17.31
2022-08-18T04:30:28.953Z,17.29
2022-08-18T04:31:28.946Z,17.29
2022-08-18T04:32:30.293Z,17.26
2022-08-18T04:33:28.931Z,17.14
2022-08-18T04:34:28.934Z,17.09
2022-08-18T04:35:29.083Z,17.11
2022-08-18T04:36:28.905Z,17.19
2022-08-18T04:37:28.904Z,17.29
2022-08-18T04:38:28.886Z,17.23
2022-08-18T04:39:28.920Z,17.30
2022-08-18T04:40:28.900Z,17.36
2022-08-18T04:41:28.859Z,17.24
2022-08-18T04:42:28.861Z,17.38
2022-08-18T04:43:28.844Z,17.22
2022-08-18T04:44:28.842Z,17.34
2022-08-18T04:45:28.826Z,17.49
2022-08-18T04:46:28.819Z,17.52
2022-08-18T04:47:28.818Z,17.39
2022-08-18T04:48:28.809Z,17.45
2022-08-18T04:49:28.794Z,17.59
2022-08-18T04:50:28.795Z,17.65
2022-08-18T04:52:37.752Z,17.48
2022-08-18T04:52:40.241Z,17.64
2022-08-18T04:53:29.761Z,17.78
2022-08-18T04:54:28.755Z,17.76
2022-08-18T04:55:28.757Z,17.70
2022-08-18T04:56:28.742Z,17.74
2022-08-18T04:57:28.730Z,17.72
2022-08-18T04:58:28.725Z,17.76
2022-08-18T04:59:28.719Z,17.80
2022-08-18T05:00:28.705Z,17.92
2022-08-18T05:01:28.797Z,17.86
2022-08-18T05:02:28.692Z,17.89
2022-08-18T05:03:28.683Z,17.85
2022-08-18T05:04:28.688Z,17.95
2022-08-18T05:05:28.666Z,17.89
2022-08-18T05:06:28.657Z,18.03
2022-08-18T05:07:28.653Z,18.03
2022-08-18T05:08:28.647Z,18.00
2022-08-18T05:09:28.647Z,18.00
2022-08-18T05:10:28.627Z,17.94
2022-08-18T05:11:28.621Z,17.95
2022-08-18T05:12:28.614Z,18.00
2022-08-18T05:13:28.609Z,17.98
2022-08-18T05:14:28.605Z,18.05
2022-08-18T05:15:28.819Z,18.05
2022-08-18T05:16:28.589Z,18.07
2022-08-18T05:17:30.137Z,18.05
2022-08-18T05:18:28.570Z,18.03
2022-08-18T05:19:28.569Z,18.19
2022-08-18T05:20:28.564Z,18.08
2022-08-18T05:21:28.551Z,17.98
2022-08-18T05:22:31.376Z,18.13
2022-08-18T05:23:28.534Z,18.13
2022-08-18T05:24:33.570Z,18.18
2022-08-18T05:25:30.520Z,18.13
2022-08-18T05:26:28.509Z,18.22
2022-08-18T05:27:28.501Z,18.19
2022-08-18T05:28:28.496Z,18.20
2022-08-18T05:29:28.486Z,18.22
2022-08-18T05:30:28.490Z,18.20
2022-08-18T05:31:28.477Z,18.22
2022-08-18T05:32:46.310Z,18.29
2022-08-18T05:33:29.456Z,18.29
2022-08-18T05:34:28.501Z,18.34
2022-08-18T05:35:28.446Z,18.35
2022-08-18T05:36:28.430Z,18.47
2022-08-18T05:37:28.425Z,18.41
2022-08-18T05:38:29.421Z,18.41
2022-08-18T05:39:28.481Z,18.40
2022-08-18T05:40:28.407Z,18.52
2022-08-18T05:41:28.394Z,18.59
2022-08-18T05:42:28.777Z,18.65
2022-08-18T05:43:28.377Z,18.55
2022-08-18T05:44:28.375Z,18.70
2022-08-18T05:45:28.369Z,18.71
2022-08-18T05:46:28.365Z,18.66
2022-08-18T05:47:28.346Z,18.65
2022-08-18T05:48:28.337Z,18.63
2022-08-18T05:49:28.334Z,18.70
2022-08-18T05:50:28.321Z,18.75
2022-08-18T05:51:28.325Z,18.66
2022-08-18T05:52:28.303Z,18.78
2022-08-18T05:53:28.299Z,18.86
2022-08-18T05:54:28.297Z,18.90
2022-08-18T05:55:28.291Z,18.95
2022-08-18T05:56:28.282Z,18.96
2022-08-18T05:57:28.268Z,19.08
2022-08-18T05:58:33.299Z,19.14
2022-08-18T05:59:29.255Z,19.19
2022-08-18T06:00:28.279Z,19.09
2022-08-18T06:01:28.242Z,19.07
2022-08-18T06:02:28.230Z,19.04
2022-08-18T06:03:28.261Z,19.00
2022-08-18T06:04:28.215Z,19.08
2022-08-18T06:05:28.204Z,19.19
2022-08-18T06:06:28.213Z,19.11
2022-08-18T06:07:28.196Z,19.24
2022-08-18T06:08:29.183Z,19.31
2022-08-18T06:09:28.186Z,19.29
2022-08-18T06:10:28.271Z,19.24
2022-08-18T06:11:28.172Z,19.24
2022-08-18T06:12:28.152Z,19.19
2022-08-18T06:13:28.162Z,19.24
2022-08-18T06:14:28.136Z,19.22
2022-08-18T06:15:28.127Z,19.19
2022-08-18T06:16:28.118Z,19.36
2022-08-18T06:17:28.121Z,19.41
2022-08-18T06:18:28.103Z,19.47
2022-08-18T06:19:28.097Z,19.48
2022-08-18T06:20:28.224Z,19.64
2022-08-18T06:21:28.080Z,19.62
2022-08-18T06:22:30.539Z,19.69
2022-08-18T06:23:28.067Z,19.70
2022-08-18T06:24:28.053Z,19.73
2022-08-18T06:25:28.061Z,19.69
2022-08-18T06:26:28.048Z,19.74
2022-08-18T06:27:28.067Z,19.64
2022-08-18T06:28:28.029Z,19.58
2022-08-18T06:29:28.016Z,19.74
2022-08-18T06:30:28.008Z,19.77
2022-08-18T06:31:29.559Z,19.88
2022-08-18T06:32:28.997Z,19.86
2022-08-18T06:33:27.986Z,19.94
2022-08-18T06:34:27.977Z,19.89
2022-08-18T06:35:27.995Z,19.84
2022-08-18T06:36:27.969Z,19.89
2022-08-18T06:37:28.715Z,19.96
2022-08-18T06:38:27.946Z,19.92
2022-08-18T06:39:28.005Z,19.89
2022-08-18T06:40:27.933Z,19.92
2022-08-18T06:41:40.700Z,19.94
2022-08-18T06:42:28.914Z,20.02
2022-08-18T06:43:27.907Z,20.06
2022-08-18T06:44:27.903Z,20.21
2022-08-18T06:45:33.780Z,20.29
2022-08-18T06:46:28.894Z,20.29
2022-08-18T06:47:27.877Z,20.26
2022-08-18T06:48:27.872Z,20.29
2022-08-18T06:49:27.867Z,20.32
2022-08-18T06:50:27.861Z,20.29
2022-08-18T06:51:27.847Z,20.40
2022-08-18T06:52:27.870Z,20.39
2022-08-18T06:53:28.390Z,20.40
2022-08-18T06:54:27.836Z,20.47
2022-08-18T06:55:27.813Z,20.51
2022-08-18T06:56:27.807Z,20.51
2022-08-18T06:57:27.809Z,20.69
2022-08-18T06:58:27.790Z,20.74
2022-08-18T06:59:27.782Z,20.72
2022-08-18T07:00:27.777Z,20.81
2022-08-18T07:01:27.793Z,20.82
2022-08-18T07:02:27.769Z,20.87
2022-08-18T07:03:28.775Z,20.93
2022-08-18T07:04:27.742Z,20.90
2022-08-18T07:05:27.737Z,20.84
2022-08-18T07:06:27.728Z,20.78
2022-08-18T07:07:27.725Z,20.74
2022-08-18T07:08:28.713Z,20.58
2022-08-18T07:09:27.721Z,20.56
2022-08-18T07:10:27.716Z,20.60
2022-08-18T07:11:27.684Z,20.56
2022-08-18T07:12:32.254Z,20.50
2022-08-18T07:13:30.212Z,20.43
2022-08-18T07:14:27.685Z,20.31
2022-08-18T07:15:27.652Z,20.36
2022-08-18T07:16:54.516Z,20.34
2022-08-18T07:17:42.564Z,20.40
2022-08-18T07:18:28.626Z,20.40
2022-08-18T07:19:27.619Z,20.51
2022-08-18T07:20:27.614Z,20.56
2022-08-18T07:21:27.604Z,20.63
2022-08-18T07:22:38.932Z,20.67
2022-08-18T07:23:28.612Z,20.80
2022-08-18T07:24:27.585Z,20.80
2022-08-18T07:25:27.572Z,20.82
2022-08-18T07:26:27.565Z,20.62
2022-08-18T07:27:28.234Z,20.69
2022-08-18T07:28:27.559Z,20.75
2022-08-18T07:29:27.536Z,20.58
2022-08-18T07:30:27.539Z,20.59
2022-08-18T07:31:27.546Z,20.50
2022-08-18T07:32:27.512Z,20.60
2022-08-18T07:33:27.519Z,20.85
2022-08-18T07:34:27.532Z,20.90
2022-08-18T07:35:27.506Z,21.07
2022-08-18T07:36:27.484Z,21.20
2022-08-18T07:37:28.950Z,21.37
2022-08-18T07:38:42.453Z,21.45
2022-08-18T07:39:29.525Z,21.67
2022-08-18T07:40:27.476Z,21.58
2022-08-18T07:41:28.242Z,21.55
2022-08-18T07:42:53.534Z,21.67
2022-08-18T07:43:28.423Z,21.80
2022-08-18T07:44:27.414Z,21.88
2022-08-18T07:45:27.411Z,21.91
2022-08-18T07:46:27.397Z,21.99
2022-08-18T07:47:27.398Z,22.20
2022-08-18T07:48:38.175Z,22.32
2022-08-18T07:49:29.376Z,22.53
2022-08-18T07:50:57.652Z,22.62
2022-08-18T07:51:37.046Z,22.63
2022-08-18T07:52:43.935Z,22.83
2022-08-18T07:53:28.356Z,22.91
2022-08-18T07:54:48.470Z,22.98
2022-08-18T07:55:29.328Z,23.09
2022-08-18T07:56:27.321Z,23.20
2022-08-18T07:57:27.310Z,23.13
2022-08-18T07:58:27.339Z,23.12
2022-08-18T07:59:27.292Z,22.91
2022-08-18T08:00:57.086Z,22.98
2022-08-18T08:01:29.307Z,23.00
2022-08-18T08:02:27.274Z,22.87
2022-08-18T08:03:27.287Z,22.75
2022-08-18T08:04:27.251Z,22.84
2022-08-18T08:05:27.239Z,22.70
2022-08-18T08:06:27.247Z,22.76
2022-08-18T08:07:27.251Z,22.75
2022-08-18T08:08:27.223Z,22.83
2022-08-18T08:09:27.215Z,22.66
2022-08-18T08:10:27.202Z,22.55
2022-08-18T08:11:27.203Z,22.33
2022-08-18T08:12:27.186Z,22.23
2022-08-18T08:13:53.533Z,22.26
2022-08-18T08:14:29.201Z,22.23
2022-08-18T08:15:27.360Z,22.22
2022-08-18T08:16:27.167Z,22.26
2022-08-18T08:17:27.147Z,22.29
2022-08-18T08:18:27.137Z,22.25
2022-08-18T08:19:49.342Z,22.39
2022-08-18T08:20:32.889Z,22.35
2022-08-18T08:21:27.145Z,22.39
2022-08-18T08:22:27.110Z,22.47
2022-08-18T08:23:27.101Z,22.43
2022-08-18T08:24:27.099Z,22.45
2022-08-18T08:25:47.550Z,22.48
2022-08-18T08:26:29.079Z,22.44
2022-08-18T08:27:27.682Z,22.36
2022-08-18T08:28:27.065Z,22.44
2022-08-18T08:29:27.066Z,22.51
2022-08-18T08:30:27.048Z,22.38
2022-08-18T08:31:39.761Z,22.26
2022-08-18T08:32:29.031Z,22.17
2022-08-18T08:33:27.028Z,22.28
2022-08-18T08:34:27.028Z,22.26
2022-08-18T08:35:50.159Z,22.28
2022-08-18T08:36:28.020Z,22.26
2022-08-18T08:37:26.991Z,22.17
2022-08-18T08:38:42.301Z,22.17
2022-08-18T08:39:29.062Z,22.14
2022-08-18T08:40:26.972Z,22.00
2022-08-18T08:41:26.965Z,21.91
2022-08-18T08:42:31.547Z,21.95
2022-08-18T08:43:27.946Z,21.96
2022-08-18T08:44:26.934Z,21.95
2022-08-18T08:45:26.935Z,21.96
2022-08-18T08:46:26.935Z,21.88
2022-08-18T08:47:26.922Z,21.96
2022-08-18T08:48:26.901Z,21.88
2022-08-18T08:49:26.895Z,21.83
2022-08-18T08:50:26.893Z,21.76
2022-08-18T08:51:26.893Z,21.85
2022-08-18T08:52:26.867Z,21.79
2022-08-18T08:53:26.859Z,21.75
2022-08-18T08:54:26.856Z,21.76
2022-08-18T08:55:26.849Z,21.73
2022-08-18T08:56:26.838Z,21.64
2022-08-18T08:57:27.690Z,21.66
2022-08-18T08:58:26.821Z,21.62
2022-08-18T08:59:26.813Z,21.57
2022-08-18T09:00:26.810Z,21.50
2022-08-18T09:01:26.883Z,21.50
2022-08-18T09:02:46.820Z,21.36
2022-08-18T09:03:30.260Z,21.36
2022-08-18T09:04:26.770Z,21.33
2022-08-18T09:05:26.819Z,21.37
2022-08-18T09:06:26.769Z,21.25
2022-08-18T09:07:26.744Z,21.25
2022-08-18T09:08:26.745Z,21.21
2022-08-18T09:09:26.735Z,21.22
2022-08-18T09:10:26.725Z,21.21
2022-08-18T09:11:26.723Z,21.17
2022-08-18T09:12:26.715Z,21.05
2022-08-18T09:13:29.171Z,21.09
2022-08-18T09:14:27.687Z,21.05
2022-08-18T09:15:26.683Z,21.00
2022-08-18T09:16:27.779Z,21.00
2022-08-18T09:17:30.026Z,20.99
2022-08-18T09:18:27.649Z,20.93
2022-08-18T09:19:26.651Z,20.93
2022-08-18T09:20:26.646Z,20.81
2022-08-18T09:21:26.623Z,20.90
2022-08-18T09:22:27.177Z,20.81
2022-08-18T09:23:26.611Z,20.78
2022-08-18T09:24:26.612Z,20.81
2022-08-18T09:25:26.602Z,20.77
2022-08-18T09:26:26.591Z,20.74
2022-08-18T09:27:26.596Z,20.75
2022-08-18T09:28:26.579Z,20.62
2022-08-18T09:29:26.565Z,20.66
2022-08-18T09:30:26.565Z,20.67
2022-08-18T09:31:26.550Z,20.63
2022-08-18T09:32:28.209Z,20.50
2022-08-18T09:33:26.543Z,20.59
2022-08-18T09:34:26.527Z,20.58
2022-08-18T09:35:26.525Z,20.43
2022-08-18T09:36:26.513Z,20.44
2022-08-18T09:37:26.573Z,20.50
2022-08-18T09:38:26.505Z,20.48
2022-08-18T09:39:26.620Z,20.55
2022-08-18T09:40:51.341Z,20.41
2022-08-18T09:41:28.472Z,20.47
2022-08-18T09:42:29.897Z,20.50
2022-08-18T09:43:26.467Z,20.50
2022-08-18T09:44:26.578Z,20.58
2022-08-18T09:45:31.058Z,20.56
2022-08-18T09:46:28.438Z,20.62
2022-08-18T09:47:27.505Z,20.63
2022-08-18T09:49:27.422Z,20.69
2022-08-18T09:50:26.805Z,20.67
2022-08-18T09:50:37.216Z,20.67
2022-08-18T09:51:27.396Z,20.80
2022-08-18T09:52:26.427Z,20.78
2022-08-18T09:53:26.381Z,20.65
2022-08-18T09:54:26.377Z,20.59
2022-08-18T09:55:26.367Z,20.78
2022-08-18T09:56:28.675Z,20.77
2022-08-18T09:57:26.362Z,20.75
2022-08-18T09:58:26.352Z,20.92
2022-08-18T09:59:26.321Z,20.88
2022-08-18T10:00:28.251Z,21.00
2022-08-18T10:01:26.362Z,21.07
2022-08-18T10:02:28.059Z,21.14
2022-08-18T10:03:26.476Z,21.11
2022-08-18T10:04:29.227Z,21.21
2022-08-18T10:05:26.290Z,21.33
2022-08-18T10:06:27.616Z,21.30
2022-08-18T10:07:26.274Z,21.37
2022-08-18T10:08:26.270Z,21.60
2022-08-18T10:09:36.972Z,21.76
2022-08-18T10:11:01.247Z,21.83
2022-08-18T10:11:27.238Z,22.06
2022-08-18T10:12:27.453Z,21.98
2022-08-18T10:13:26.233Z,22.15
2022-08-18T10:14:26.227Z,22.15
2022-08-18T10:15:33.125Z,22.08
2022-08-18T10:16:28.141Z,22.11
2022-08-18T10:17:26.194Z,22.22
2022-08-18T10:18:26.185Z,22.23
2022-08-18T10:19:28.165Z,22.35
2022-08-18T10:20:28.179Z,22.35
2022-08-18T10:21:26.166Z,22.41
2022-08-18T10:22:35.171Z,22.33
2022-08-18T10:23:28.147Z,22.44
2022-08-18T10:24:35.847Z,22.43
2022-08-18T10:25:28.133Z,22.54
2022-08-18T10:26:26.143Z,22.43
2022-08-18T10:27:26.118Z,22.59
2022-08-18T10:28:26.110Z,22.60
2022-08-18T10:29:26.097Z,22.66
2022-08-18T10:30:30.449Z,22.63
2022-08-18T10:31:27.285Z,22.69
2022-08-18T10:32:26.072Z,22.78
2022-08-18T10:33:26.074Z,22.68
2022-08-18T10:34:26.064Z,22.62
2022-08-18T10:35:32.662Z,22.62
2022-08-18T10:36:28.806Z,22.60
2022-08-18T10:37:26.341Z,22.63
2022-08-18T10:38:26.026Z,22.63
2022-08-18T10:39:27.117Z,22.78
2022-08-18T10:40:26.652Z,22.83
2022-08-18T10:41:26.731Z,22.72
2022-08-18T10:42:28.599Z,22.73
2022-08-18T10:44:29.591Z,22.43
2022-08-18T10:45:26.985Z,22.47
2022-08-18T10:46:28.520Z,22.51
2022-08-18T10:47:33.500Z,22.51
2022-08-18T10:48:27.078Z,22.45
2022-08-18T10:50:26.933Z,22.54
2022-08-18T10:51:25.935Z,22.66
2022-08-18T10:52:25.921Z,22.69
2022-08-18T10:53:40.710Z,22.83
2022-08-18T10:54:27.920Z,22.75
2022-08-18T10:55:25.910Z,22.88
2022-08-18T10:56:27.430Z,22.93
2022-08-18T10:57:25.889Z,22.94
2022-08-18T10:58:28.220Z,22.78
2022-08-18T10:59:28.083Z,22.88
2022-08-18T11:00:26.099Z,22.83
2022-08-18T11:01:25.856Z,22.85
2022-08-18T11:02:26.848Z,22.81
2022-08-18T11:03:55.491Z,22.78
2022-08-18T11:04:34.526Z,22.65
2022-08-18T11:05:27.827Z,22.85
2022-08-18T11:06:25.828Z,22.96
2022-08-18T11:07:25.824Z,23.09
2022-08-18T11:08:25.839Z,23.10
2022-08-18T11:09:25.798Z,23.24
2022-08-18T11:10:30.032Z,23.28
2022-08-18T11:12:27.771Z,23.63
2022-08-18T11:13:26.121Z,23.74
2022-08-18T11:14:25.769Z,23.73
2022-08-18T11:15:25.750Z,24.05
2022-08-18T11:16:25.741Z,24.03
2022-08-18T11:17:26.362Z,24.23
2022-08-18T11:18:25.728Z,24.30
2022-08-18T11:19:25.714Z,24.30
2022-08-18T11:20:25.710Z,24.16
2022-08-18T11:21:25.702Z,23.87
2022-08-18T11:22:31.501Z,23.68
2022-08-18T11:23:26.690Z,23.69
2022-08-18T11:24:25.686Z,23.63
2022-08-18T11:25:25.672Z,23.66
2022-08-18T11:26:25.664Z,23.68
2022-08-18T11:27:25.651Z,23.77
2022-08-18T11:29:26.630Z,23.81
2022-08-18T11:30:30.426Z,23.91
2022-08-18T11:31:26.621Z,23.91
2022-08-18T11:32:26.258Z,23.88
2022-08-18T11:33:25.608Z,23.78
2022-08-18T11:34:25.596Z,23.61
2022-08-18T11:35:25.594Z,23.44
2022-08-18T11:36:26.150Z,23.40
2022-08-18T11:37:25.576Z,23.50
2022-08-18T11:38:25.565Z,23.48
2022-08-18T11:39:36.861Z,23.55
2022-08-18T11:41:08.974Z,23.54
2022-08-18T11:41:48.259Z,23.59
2022-08-18T11:42:26.543Z,23.63
2022-08-18T11:43:25.534Z,23.71
2022-08-18T11:44:25.610Z,23.84
2022-08-18T11:45:25.520Z,23.88
2022-08-18T11:46:30.134Z,23.96
2022-08-18T11:47:27.702Z,24.03
2022-08-18T11:48:32.158Z,24.17
2022-08-18T11:49:27.480Z,24.23
2022-08-18T11:50:25.475Z,24.28
2022-08-18T11:51:25.596Z,24.35
2022-08-18T11:52:29.074Z,24.48
2022-08-18T11:53:27.338Z,24.51
2022-08-18T11:54:25.441Z,24.61
2022-08-18T11:55:25.435Z,24.68
2022-08-18T11:56:27.102Z,24.73
2022-08-18T11:57:26.437Z,24.66
2022-08-18T11:58:25.415Z,24.73
2022-08-18T11:59:52.655Z,24.66
2022-08-18T12:00:26.407Z,24.63
2022-08-18T12:01:25.393Z,24.77
2022-08-18T12:02:25.440Z,24.80
2022-08-18T12:03:28.454Z,24.70
2022-08-18T12:04:26.277Z,24.88
2022-08-18T12:05:25.357Z,24.69
2022-08-18T12:06:27.094Z,24.81
2022-08-18T12:07:25.357Z,24.66
2022-08-18T12:08:54.654Z,24.68
2022-08-18T12:10:28.463Z,24.81
2022-08-18T12:11:27.194Z,24.66
2022-08-18T12:12:25.468Z,24.74
2022-08-18T12:13:25.310Z,24.57
2022-08-18T12:15:36.556Z,24.48
2022-08-18T12:16:27.276Z,24.50
2022-08-18T12:17:25.282Z,24.48
2022-08-18T12:18:28.728Z,24.60
2022-08-18T12:19:25.331Z,24.57
2022-08-18T12:20:25.242Z,24.33
2022-08-18T12:21:25.256Z,24.24
2022-08-18T12:22:26.223Z,24.29
2022-08-18T12:23:25.230Z,24.29
2022-08-18T12:24:26.081Z,24.28
2022-08-18T12:25:25.810Z,24.32
2022-08-18T12:26:38.820Z,24.30
2022-08-18T12:27:26.188Z,24.50
2022-08-18T12:28:28.197Z,24.53
2022-08-18T12:29:29.474Z,24.40
2022-08-18T12:30:27.165Z,24.33
2022-08-18T12:32:41.345Z,24.39
2022-08-18T12:33:34.562Z,24.29
2022-08-18T12:34:26.609Z,24.32
2022-08-18T12:35:25.181Z,24.23
2022-08-18T12:36:25.117Z,24.26
2022-08-18T12:37:58.129Z,24.45
2022-08-18T12:38:27.103Z,24.53
2022-08-18T12:39:25.109Z,24.65
2022-08-18T12:40:25.135Z,24.69
2022-08-18T12:41:25.072Z,24.77
2022-08-18T12:43:11.663Z,24.68
2022-08-18T12:44:13.418Z,24.86
2022-08-18T12:45:11.691Z,24.92
2022-08-18T12:47:12.626Z,25.07
2022-08-18T12:48:11.630Z,25.13
2022-08-18T12:49:11.615Z,25.06
2022-08-18T12:50:11.610Z,25.16
2022-08-18T12:51:14.240Z,25.21
2022-08-18T12:52:12.689Z,25.08
2022-08-18T12:53:14.337Z,25.01
2022-08-18T12:54:13.742Z,24.68
2022-08-18T12:55:22.031Z,24.45
2022-08-18T12:56:13.651Z,24.30
2022-08-18T12:57:16.877Z,24.28
2022-08-18T12:58:13.412Z,24.43
2022-08-18T12:59:12.640Z,24.38
2022-08-18T13:00:15.331Z,24.38
2022-08-18T13:01:13.663Z,24.38
2022-08-18T13:02:13.423Z,24.38
2022-08-18T13:03:13.490Z,24.54